Time;durP1;ratioP1;P1;durP2;ratioP2;P2;SDS_P1;SDS_P2;PMS_P1;PMS_P2;Temp;Humidity;BMP_temperature;BMP_pressure;BME280_temperature;BME280_humidity;BME280_pressure;Samples;Min_cycle;Max_cycle;Signal;HPM_P1;HPM_P2
2021/08/28 00:01:45;;;;;;;4.57;2.92;;;7.70;99.90;;;;;;5072127;28;20063;-71
2021/08/28 00:04:11;;;;;;;3.95;3.00;;;7.80;99.90;;;;;;5071718;28;20021;-71
2021/08/28 00:06:36;;;;;;;7.43;3.10;;;7.80;99.90;;;;;;5072378;28;20032;-71
2021/08/28 00:09:02;;;;;;;4.72;3.45;;;7.80;99.90;;;;;;5071698;28;20040;-71
2021/08/28 00:11:28;;;;;;;5.25;3.47;;;7.80;99.90;;;;;;5071791;28;20028;-71
2021/08/28 00:13:54;;;;;;;8.18;3.38;;;7.70;99.90;;;;;;5071838;28;20028;-71
2021/08/28 00:16:19;;;;;;;4.53;2.65;;;7.70;99.90;;;;;;5071806;28;20384;-71
2021/08/28 00:18:45;;;;;;;5.30;3.10;;;7.70;99.90;;;;;;5071943;28;20025;-71
2021/08/28 00:21:11;;;;;;;7.03;3.78;;;7.70;99.90;;;;;;5070337;28;20441;-71
2021/08/28 00:23:37;;;;;;;8.77;3.30;;;7.70;99.90;;;;;;5075207;28;20025;-71
2021/08/28 00:26:03;;;;;;;11.35;3.60;;;7.80;99.90;;;;;;5075607;28;20364;-71
2021/08/28 00:28:29;;;;;;;6.40;3.17;;;7.80;99.90;;;;;;5075757;28;20028;-71
2021/08/28 00:30:55;;;;;;;6.57;3.22;;;7.80;99.90;;;;;;5075801;28;20095;-71
2021/08/28 00:33:21;;;;;;;6.35;3.10;;;7.70;99.90;;;;;;5075450;28;20064;-71
2021/08/28 00:35:47;;;;;;;3.88;2.88;;;7.60;99.90;;;;;;5075734;28;20045;-71
2021/08/28 00:38:13;;;;;;;7.50;3.47;;;7.60;99.90;;;;;;5075661;28;20025;-71
2021/08/28 00:40:39;;;;;;;7.22;3.15;;;7.60;99.90;;;;;;5075717;28;20024;-71
2021/08/28 00:43:05;;;;;;;7.28;3.78;;;7.50;99.90;;;;;;5075100;28;20078;-71
2021/08/28 00:45:32;;;;;;;4.18;3.05;;;7.50;99.90;;;;;;5075326;28;20024;-71
2021/08/28 00:48:06;;;;;;;5.18;2.97;;;7.50;99.90;;;;;;5074961;28;20036;-71
2021/08/28 00:50:34;;;;;;;5.63;3.33;;;7.50;99.90;;;;;;5075248;28;20052;-71
2021/08/28 00:53:04;;;;;;;5.38;3.47;;;7.50;99.90;;;;;;5075191;28;20028;-71
2021/08/28 00:55:36;;;;;;;5.28;3.35;;;7.50;99.90;;;;;;5074965;28;20048;-71
2021/08/28 00:58:04;;;;;;;6.78;3.08;;;7.50;99.90;;;;;;5074800;28;20032;-71
2021/08/28 01:00:41;;;;;;;4.85;3.15;;;7.50;99.90;;;;;;5075194;28;20055;-71
2021/08/28 01:03:08;;;;;;;7.82;3.35;;;7.50;99.90;;;;;;5074628;28;20055;-71
2021/08/28 01:05:49;;;;;;;5.82;3.10;;;7.50;99.90;;;;;;5075185;28;20099;-71
2021/08/28 01:08:38;;;;;;;9.25;3.30;;;7.40;99.90;;;;;;5074966;28;20040;-71
2021/08/28 01:11:15;;;;;;;7.60;2.80;;;7.40;99.90;;;;;;5074658;28;20020;-71
2021/08/28 01:13:49;;;;;;;5.43;3.13;;;7.40;99.90;;;;;;5074671;28;20498;-71
2021/08/28 01:16:18;;;;;;;7.30;3.60;;;7.40;99.90;;;;;;5074719;28;20225;-71
2021/08/28 01:47:49;;;;;;;6.97;3.10;;;7.00;99.90;;;;;;5074131;28;20041;-71
2021/08/28 01:50:19;;;;;;;4.75;3.45;;;7.10;99.90;;;;;;5074038;28;20025;-71
2021/08/28 01:52:46;;;;;;;7.10;3.25;;;7.10;99.90;;;;;;5074203;28;20388;-70
2021/08/28 01:55:12;;;;;;;5.07;3.20;;;7.10;99.90;;;;;;5073822;28;20044;-70
2021/08/28 01:57:38;;;;;;;5.03;3.47;;;7.00;99.90;;;;;;5074089;28;20035;-71
2021/08/28 02:00:05;;;;;;;4.88;3.03;;;7.00;99.90;;;;;;5073781;28;20120;-71
2021/08/28 02:02:31;;;;;;;5.35;3.42;;;7.00;99.90;;;;;;5073758;28;20132;-70
2021/08/28 02:04:57;;;;;;;11.88;3.17;;;7.00;99.90;;;;;;5073875;28;20387;-71
2021/08/28 02:07:34;;;;;;;5.13;3.00;;;7.00;99.90;;;;;;5073658;28;20039;-71
2021/08/28 02:10:15;;;;;;;5.30;3.53;;;6.90;99.90;;;;;;5073565;28;20029;-71
2021/08/28 02:12:42;;;;;;;;;;;6.90;99.90;;;;;;5074346;28;20025;-71
2021/08/28 02:15:32;;;;;;;4.75;3.15;;;6.80;99.90;;;;;;5073527;28;19904;-70
2021/08/28 02:18:17;;;;;;;5.05;3.47;;;6.80;99.90;;;;;;5073373;28;20025;-71
2021/08/28 02:20:50;;;;;;;5.00;3.50;;;6.70;99.90;;;;;;5073879;28;20432;-70
2021/08/28 02:23:33;;;;;;;6.90;3.17;;;6.70;99.90;;;;;;5073502;28;20033;-70
2021/08/28 02:26:19;;;;;;;4.95;3.17;;;6.70;99.90;;;;;;5073295;28;20027;-70
2021/08/28 02:28:51;;;;;;;6.53;3.25;;;6.70;99.90;;;;;;5073296;28;20047;-71
2021/08/28 02:31:21;;;;;;;5.57;3.40;;;6.60;99.90;;;;;;5073483;28;20020;-71
2021/08/28 02:33:48;;;;;;;5.67;3.30;;;6.60;99.90;;;;;;5073195;28;20061;-71
2021/08/28 02:36:14;;;;;;;5.28;3.00;;;6.60;99.90;;;;;;5073113;28;20491;-70
2021/08/28 02:38:41;;;;;;;7.00;3.20;;;6.50;99.90;;;;;;5073309;28;20074;-70
2021/08/28 02:41:07;;;;;;;5.07;3.17;;;6.60;99.90;;;;;;5073283;28;20418;-70
2021/08/28 02:43:34;;;;;;;6.55;3.80;;;6.50;99.90;;;;;;5073039;28;20078;-70
2021/08/28 02:46:01;;;;;;;8.63;3.47;;;6.50;99.90;;;;;;5071910;28;20027;-71
2021/08/28 02:48:30;;;;;;;11.88;3.70;;;6.40;99.90;;;;;;5073128;28;20041;-71
2021/08/28 02:51:00;;;;;;;4.95;3.45;;;6.40;99.90;;;;;;5072882;28;20028;-70
2021/08/28 02:53:28;;;;;;;5.00;3.65;;;6.40;99.90;;;;;;5072623;28;20072;-71
2021/08/28 02:55:55;;;;;;;4.88;3.45;;;6.40;99.90;;;;;;5073084;28;20052;-71
2021/08/28 02:58:21;;;;;;;6.53;3.30;;;6.40;99.90;;;;;;5072706;28;20028;-71
2021/08/28 03:00:48;;;;;;;4.70;3.58;;;6.40;99.90;;;;;;5072725;28;20028;-70
2021/08/28 03:03:16;;;;;;;7.07;3.80;;;6.40;99.90;;;;;;5072414;28;20027;-70
2021/08/28 03:05:47;;;;;;;8.05;4.00;;;6.40;99.90;;;;;;5072754;28;20024;-70
2021/08/28 03:08:15;;;;;;;6.72;3.92;;;6.40;99.90;;;;;;5072333;28;20084;-71
2021/08/28 03:10:44;;;;;;;4.85;3.60;;;6.40;99.90;;;;;;5072790;28;20085;-70
2021/08/28 03:13:10;;;;;;;6.57;3.30;;;6.50;99.90;;;;;;5072573;28;20074;-71
2021/08/28 03:15:36;;;;;;;8.30;3.60;;;6.50;99.90;;;;;;5072582;28;20016;-70
2021/08/28 03:18:06;;;;;;;5.18;3.58;;;6.50;99.90;;;;;;5072383;28;20027;-70
2021/08/28 03:20:32;;;;;;;7.27;3.70;;;6.50;99.90;;;;;;5072795;28;20071;-70
2021/08/28 03:22:59;;;;;;;4.85;3.35;;;6.50;99.90;;;;;;5072130;28;20324;-70
2021/08/28 03:25:26;;;;;;;5.65;3.80;;;6.50;99.90;;;;;;5072264;28;20025;-71
2021/08/28 03:27:53;;;;;;;6.78;4.03;;;6.50;99.90;;;;;;5072236;28;20488;-70
2021/08/28 03:30:20;;;;;;;6.15;3.55;;;6.50;99.90;;;;;;5071990;28;20509;-70
2021/08/28 03:32:47;;;;;;;7.50;3.95;;;6.50;99.90;;;;;;5072308;28;20039;-70
2021/08/28 03:35:13;;;;;;;6.25;3.72;;;6.60;99.90;;;;;;5072258;28;20025;-70
2021/08/28 03:37:39;;;;;;;7.32;3.92;;;6.60;99.90;;;;;;5072424;28;20361;-70
2021/08/28 03:40:10;;;;;;;6.38;3.88;;;6.60;99.90;;;;;;5072338;28;20036;-70
2021/08/28 03:42:41;;;;;;;;;;;6.60;99.90;;;;;;5072470;28;20025;-70
2021/08/28 03:45:08;;;;;;;4.72;3.45;;;6.60;99.90;;;;;;5072266;28;19905;-70
2021/08/28 03:47:37;;;;;;;4.97;3.63;;;6.70;99.90;;;;;;5071889;28;20029;-70
2021/08/28 03:50:04;;;;;;;4.40;3.55;;;6.70;99.90;;;;;;5071962;28;20024;-70
2021/08/28 03:52:30;;;;;;;4.78;3.83;;;6.70;99.90;;;;;;5072297;28;20025;-70
2021/08/28 03:54:56;;;;;;;6.82;3.58;;;6.70;99.90;;;;;;5071815;28;20499;-70
2021/08/28 03:57:21;;;;;;;5.35;3.70;;;6.70;99.90;;;;;;5071499;28;20077;-70
2021/08/28 03:59:47;;;;;;;7.00;3.58;;;6.80;99.90;;;;;;5072225;28;20024;-70
2021/08/28 04:02:13;;;;;;;5.20;3.95;;;6.80;99.90;;;;;;5071997;28;20052;-70
2021/08/28 04:04:39;;;;;;;3.88;3.30;;;6.80;99.90;;;;;;5071817;28;20395;-70
2021/08/28 04:07:04;;;;;;;5.60;4.00;;;7.00;99.90;;;;;;5071921;28;20111;-70
2021/08/28 04:09:30;;;;;;;5.28;3.30;;;7.20;99.90;;;;;;5071789;28;20392;-70
2021/08/28 04:11:56;;;;;;;5.65;3.20;;;7.40;99.90;;;;;;5071853;28;20040;-70
2021/08/28 04:14:21;;;;;;;7.43;3.70;;;7.70;99.90;;;;;;5071852;28;20029;-71
2021/08/28 04:16:47;;;;;;;5.85;3.58;;;8.00;99.90;;;;;;5071827;28;20436;-71
2021/08/28 04:19:13;;;;;;;4.30;3.00;;;8.30;99.90;;;;;;5071624;28;20066;-71
2021/08/28 04:21:39;;;;;;;5.30;3.20;;;8.60;99.90;;;;;;5072029;28;20067;-71
2021/08/28 04:24:04;;;;;;;8.98;3.13;;;8.90;99.90;;;;;;5071735;28;20024;-71
2021/08/28 04:26:30;;;;;;;3.85;2.53;;;9.20;99.90;;;;;;5071680;28;20017;-71
2021/08/28 04:28:57;;;;;;;5.57;3.15;;;9.40;99.90;;;;;;5071671;28;20039;-71
2021/08/28 04:31:24;;;;;;;4.57;3.00;;;9.60;99.90;;;;;;5071461;28;20025;-71
2021/08/28 04:33:50;;;;;;;3.95;2.75;;;9.90;99.90;;;;;;5071561;28;20036;-71
2021/08/28 04:36:16;;;;;;;4.97;3.15;;;10.10;99.90;;;;;;5071540;28;20032;-71
2021/08/28 04:38:41;;;;;;;3.53;2.83;;;10.30;99.90;;;;;;5071520;28;20025;-71
2021/08/28 04:41:07;;;;;;;3.88;2.45;;;10.50;99.90;;;;;;5071490;28;20071;-71
2021/08/28 04:43:33;;;;;;;3.42;2.30;;;10.70;99.90;;;;;;5072010;28;20078;-71
2021/08/28 04:45:58;;;;;;;4.93;2.97;;;10.90;99.90;;;;;;5071569;28;20475;-71
2021/08/28 04:48:24;;;;;;;4.40;2.50;;;11.10;99.90;;;;;;5071246;28;20037;-71
2021/08/28 04:50:50;;;;;;;3.17;2.45;;;11.20;99.90;;;;;;5071429;28;20020;-71
2021/08/28 04:53:16;;;;;;;5.65;2.42;;;11.40;99.90;;;;;;5071042;28;20033;-71
2021/08/28 04:55:41;;;;;;;2.63;2.10;;;11.60;99.90;;;;;;5071480;28;20112;-71
2021/08/28 04:58:07;;;;;;;3.40;2.40;;;11.80;99.90;;;;;;5070112;28;20021;-71
2021/08/28 05:00:33;;;;;;;4.03;2.63;;;11.90;99.90;;;;;;5071605;28;20037;-71
2021/08/28 05:02:59;;;;;;;2.90;2.30;;;12.10;99.90;;;;;;5071254;28;20701;-71
2021/08/28 05:05:24;;;;;;;4.00;2.55;;;12.30;99.90;;;;;;5071515;28;20044;-71
2021/08/28 05:07:50;;;;;;;3.30;2.40;;;12.40;99.90;;;;;;5071206;28;20060;-71
2021/08/28 05:10:16;;;;;;;3.90;2.55;;;12.50;99.90;;;;;;5073597;28;20017;-71
2021/08/28 05:12:41;;;;;;;3.58;2.25;;;12.60;99.90;;;;;;5075104;28;20057;-71
2021/08/28 05:15:08;;;;;;;3.95;2.40;;;12.70;99.90;;;;;;5074949;28;20017;-71
2021/08/28 05:17:33;;;;;;;3.55;2.50;;;13.00;99.90;;;;;;5075038;28;20116;-71
2021/08/28 05:19:59;;;;;;;2.90;2.00;;;13.10;99.90;;;;;;5074694;28;20074;-71
2021/08/28 05:22:25;;;;;;;7.53;2.30;;;13.30;99.90;;;;;;5074788;28;20033;-71
2021/08/28 05:24:50;;;;;;;2.42;1.83;;;13.50;99.90;;;;;;5074879;28;20438;-71
2021/08/28 05:27:16;;;;;;;3.65;2.22;;;13.60;99.90;;;;;;5074655;28;20036;-71
2021/08/28 05:29:42;;;;;;;3.30;2.45;;;13.70;99.90;;;;;;5074525;28;20153;-71
2021/08/28 05:32:08;;;;;;;2.38;2.03;;;13.80;99.90;;;;;;5074462;28;20036;-71
2021/08/28 05:34:34;;;;;;;2.47;1.75;;;13.90;99.90;;;;;;5074354;28;20024;-71
2021/08/28 05:37:00;;;;;;;2.50;2.10;;;14.10;99.90;;;;;;5074481;28;20032;-71
2021/08/28 05:39:26;;;;;;;3.35;2.03;;;14.20;99.90;;;;;;5074421;28;20037;-71
2021/08/28 05:41:52;;;;;;;4.63;2.08;;;14.30;99.90;;;;;;5074344;28;20445;-72
2021/08/28 05:44:17;;;;;;;4.40;2.00;;;14.50;99.90;;;;;;5074079;28;20112;-72
2021/08/28 05:46:43;;;;;;;4.10;2.38;;;14.70;99.90;;;;;;5074198;28;20071;-72
2021/08/28 05:49:09;;;;;;;2.72;1.90;;;14.90;99.90;;;;;;5074014;28;20033;-71
2021/08/28 05:51:34;;;;;;;2.72;1.90;;;15.00;99.90;;;;;;5074493;28;20112;-72
2021/08/28 05:54:00;;;;;;;3.78;2.33;;;14.90;99.90;;;;;;5073811;28;20114;-72
2021/08/28 05:56:26;;;;;;;3.00;2.20;;;15.00;99.90;;;;;;5073951;28;20027;-71
2021/08/28 05:58:51;;;;;;;3.80;2.35;;;15.20;99.90;;;;;;5074254;28;20112;-71
2021/08/28 06:01:17;;;;;;;2.80;1.80;;;15.20;99.90;;;;;;5074131;28;20115;-72
2021/08/28 06:03:43;;;;;;;4.20;1.75;;;15.30;99.90;;;;;;5074208;28;20102;-71
2021/08/28 06:06:09;;;;;;;3.28;1.75;;;15.30;99.90;;;;;;5074056;28;20032;-71
2021/08/28 06:08:34;;;;;;;2.42;1.90;;;15.40;99.90;;;;;;5074036;28;20115;-71
2021/08/28 06:11:00;;;;;;;2.80;1.90;;;15.50;99.90;;;;;;5073724;28;20079;-71
2021/08/28 06:13:26;;;;;;;4.28;1.90;;;15.60;99.90;;;;;;5073700;28;20086;-71
2021/08/28 06:15:52;;;;;;;4.10;1.85;;;15.70;99.90;;;;;;5073924;28;20018;-71
2021/08/28 06:18:17;;;;;;;4.72;2.00;;;15.70;99.90;;;;;;5073498;28;20032;-71
2021/08/28 06:20:43;;;;;;;4.32;1.80;;;15.80;99.90;;;;;;5073294;28;20028;-71
2021/08/28 06:23:09;;;;;;;3.25;2.13;;;15.80;99.90;;;;;;5073590;28;20024;-71
2021/08/28 06:25:35;;;;;;;2.15;1.52;;;15.90;99.90;;;;;;5072126;28;20476;-72
2021/08/28 06:28:00;;;;;;;4.88;1.73;;;15.90;99.90;;;;;;5073370;28;20068;-71
2021/08/28 06:30:26;;;;;;;2.50;1.90;;;16.00;99.90;;;;;;5073159;28;20446;-71
2021/08/28 06:32:52;;;;;;;3.47;2.03;;;16.00;99.90;;;;;;5073269;28;20050;-71
2021/08/28 06:35:18;;;;;;;2.28;1.83;;;16.10;99.90;;;;;;5073129;28;20025;-71
2021/08/28 06:37:43;;;;;;;3.25;1.80;;;16.30;99.90;;;;;;5073474;28;20025;-72
2021/08/28 06:40:09;;;;;;;3.03;1.92;;;16.40;99.90;;;;;;5073017;28;20025;-72
2021/08/28 06:42:36;;;;;;;3.33;1.98;;;16.40;99.90;;;;;;5073034;28;20545;-72
2021/08/28 06:45:03;;;;;;;2.92;2.05;;;16.50;99.90;;;;;;5073260;28;20028;-72
2021/08/28 06:47:28;;;;;;;2.45;1.80;;;16.50;99.90;;;;;;5072888;28;20116;-72
2021/08/28 06:49:54;;;;;;;3.95;2.00;;;16.40;99.90;;;;;;5073196;28;20127;-72
2021/08/28 06:52:20;;;;;;;4.80;1.88;;;16.40;99.90;;;;;;5072775;28;20028;-72
2021/08/28 06:54:45;;;;;;;4.18;2.28;;;16.40;99.90;;;;;;5072839;28;20064;-72
2021/08/28 06:57:11;;;;;;;2.80;2.10;;;16.30;99.90;;;;;;5073075;28;20436;-72
2021/08/28 06:59:38;;;;;;;3.20;1.88;;;16.20;99.90;;;;;;5072738;28;20392;-72
2021/08/28 07:02:03;;;;;;;3.08;2.33;;;16.20;99.90;;;;;;5071759;28;20094;-72
2021/08/28 07:04:29;;;;;;;2.53;2.13;;;16.30;99.90;;;;;;5072496;28;20476;-72
2021/08/28 07:06:55;;;;;;;4.07;1.95;;;16.30;99.90;;;;;;5072651;28;20037;-72
2021/08/28 07:09:21;;;;;;;2.35;1.90;;;16.30;99.90;;;;;;5072407;28;20033;-72
2021/08/28 07:11:47;;;;;;;6.18;2.25;;;16.30;99.90;;;;;;5072880;28;20111;-72
2021/08/28 07:14:13;;;;;;;2.40;1.67;;;16.20;99.90;;;;;;5072649;28;20509;-72
2021/08/28 07:16:38;;;;;;;3.25;1.85;;;16.30;99.90;;;;;;5072777;28;20031;-72
2021/08/28 07:19:04;;;;;;;2.15;1.83;;;16.40;99.90;;;;;;5072635;28;20036;-72
2021/08/28 07:21:30;;;;;;;5.22;2.22;;;16.60;99.90;;;;;;5072643;28;20400;-72
2021/08/28 07:23:55;;;;;;;5.95;2.30;;;16.60;99.90;;;;;;5072462;28;20101;-72
2021/08/28 07:26:21;;;;;;;3.33;2.10;;;16.60;99.90;;;;;;5072208;28;20036;-72
2021/08/28 07:28:47;;;;;;;3.08;2.10;;;16.70;99.90;;;;;;5072531;28;20028;-72
2021/08/28 07:31:13;;;;;;;3.83;2.05;;;16.60;99.90;;;;;;5072000;28;20024;-72
2021/08/28 07:33:39;;;;;;;4.63;2.10;;;16.60;99.90;;;;;;5071829;28;20025;-72
2021/08/28 07:36:05;;;;;;;3.15;1.88;;;16.50;99.90;;;;;;5072443;28;20025;-72
2021/08/28 07:38:31;;;;;;;4.32;2.10;;;16.50;99.90;;;;;;5072314;28;20055;-72
2021/08/28 07:40:56;;;;;;;5.65;2.00;;;16.60;99.90;;;;;;5072223;28;20441;-72
2021/08/28 07:43:22;;;;;;;2.15;1.77;;;16.60;99.90;;;;;;5072059;28;20028;-72
2021/08/28 07:45:48;;;;;;;9.90;2.55;;;16.60;99.90;;;;;;5072086;28;20017;-72
2021/08/28 07:48:14;;;;;;;3.00;1.90;;;16.60;99.90;;;;;;5071933;28;20060;-72
2021/08/28 07:50:40;;;;;;;3.75;2.10;;;16.60;99.90;;;;;;5071909;28;20029;-72
2021/08/28 07:53:05;;;;;;;4.25;1.67;;;16.60;99.90;;;;;;5072319;28;20070;-72
2021/08/28 07:55:31;;;;;;;4.75;1.95;;;16.60;99.90;;;;;;5071661;28;20325;-72
2021/08/28 07:57:57;;;;;;;5.93;1.70;;;16.50;99.90;;;;;;5072171;28;20035;-72
2021/08/28 08:00:23;;;;;;;4.22;2.05;;;16.50;99.90;;;;;;5072042;28;20111;-72
2021/08/28 08:02:49;;;;;;;3.80;2.20;;;16.50;99.90;;;;;;5072074;28;20554;-72
2021/08/28 08:05:14;;;;;;;2.55;1.92;;;16.50;99.90;;;;;;5071675;28;20024;-72
2021/08/28 08:07:40;;;;;;;6.07;2.20;;;16.60;99.90;;;;;;5072047;28;20028;-72
2021/08/28 08:10:07;;;;;;;7.53;2.17;;;16.60;99.90;;;;;;5072059;28;20021;-72
2021/08/28 08:12:33;;;;;;;6.25;2.30;;;16.70;99.90;;;;;;5071957;28;20037;-72
2021/08/28 08:14:59;;;;;;;5.20;2.30;;;16.70;99.90;;;;;;5071774;28;20074;-72
2021/08/28 08:17:25;;;;;;;5.45;1.80;;;16.70;99.90;;;;;;5072061;28;20028;-72
2021/08/28 08:19:51;;;;;;;5.68;2.30;;;16.70;99.90;;;;;;5071989;28;20391;-72
2021/08/28 08:22:16;;;;;;;2.97;2.30;;;16.70;99.90;;;;;;5071586;28;20035;-72
2021/08/28 08:24:43;;;;;;;2.67;2.03;;;16.80;99.90;;;;;;5071753;28;20023;-72
2021/08/28 08:27:09;;;;;;;2.50;1.95;;;16.80;99.90;;;;;;5071616;28;20082;-72
2021/08/28 08:29:35;;;;;;;4.82;2.40;;;16.90;99.90;;;;;;5072072;28;20024;-72
2021/08/28 08:32:01;;;;;;;6.80;2.30;;;16.90;99.90;;;;;;5071973;28;20021;-72
2021/08/28 08:34:27;;;;;;;3.15;2.22;;;16.90;99.90;;;;;;5071800;28;20028;-72
2021/08/28 08:36:52;;;;;;;4.63;1.90;;;17.00;99.90;;;;;;5071909;28;20047;-72
2021/08/28 08:39:18;;;;;;;4.25;2.17;;;17.10;99.90;;;;;;5071734;28;20032;-72
2021/08/28 08:41:46;;;;;;;5.55;2.20;;;17.20;99.90;;;;;;5071548;28;20464;-72
2021/08/28 08:44:13;;;;;;;4.82;2.20;;;17.20;99.90;;;;;;5074135;28;20034;-72
2021/08/28 08:46:39;;;;;;;3.03;1.80;;;17.10;99.90;;;;;;5075806;28;20074;-72
2021/08/28 08:49:06;;;;;;;3.05;2.00;;;17.00;99.90;;;;;;5075349;28;20032;-72
2021/08/28 08:51:35;;;;;;;3.55;2.15;;;17.00;99.90;;;;;;5075254;28;20044;-72
2021/08/28 08:54:05;;;;;;;4.07;2.10;;;17.10;99.90;;;;;;5075086;28;20131;-72
2021/08/28 08:56:32;;;;;;;2.78;1.75;;;17.20;99.90;;;;;;5075013;28;20043;-72
2021/08/28 08:58:58;;;;;;;2.85;1.88;;;17.30;99.90;;;;;;5075177;28;20037;-72
2021/08/28 09:01:24;;;;;;;7.03;1.98;;;17.30;99.90;;;;;;5074728;28;20203;-72
2021/08/28 09:03:51;;;;;;;5.50;2.10;;;17.40;99.90;;;;;;5075036;28;20019;-72
2021/08/28 09:06:17;;;;;;;2.83;1.77;;;17.40;99.90;;;;;;5075073;28;20102;-72
2021/08/28 09:08:43;;;;;;;10.02;2.45;;;17.40;99.90;;;;;;5074929;28;20042;-72
2021/08/28 09:11:22;;;;;;;6.72;2.38;;;17.40;99.90;;;;;;5075056;28;20017;-72
2021/08/28 09:13:48;;;;;;;4.00;2.13;;;17.50;99.90;;;;;;5075132;28;20025;-72
2021/08/28 09:16:31;;;;;;;2.55;1.92;;;17.40;99.90;;;;;;5075037;28;20490;-72
2021/08/28 09:18:57;;;;;;;3.47;2.05;;;17.40;99.90;;;;;;5074916;28;20028;-72
2021/08/28 09:21:30;;;;;;;5.82;2.33;;;17.40;99.90;;;;;;5074536;28;20027;-72
2021/08/28 09:24:10;;;;;;;20.30;3.05;;;17.40;99.90;;;;;;5074667;28;20031;-75
2021/08/28 09:26:45;;;;;;;16.75;2.75;;;17.50;99.90;;;;;;5074555;28;20035;-75
2021/08/28 09:29:15;;;;;;;3.58;2.15;;;17.60;99.90;;;;;;5074678;28;20033;-72
2021/08/28 09:31:50;;;;;;;5.38;2.17;;;17.80;99.90;;;;;;5074381;28;20024;-74
2021/08/28 09:34:26;;;;;;;4.72;2.08;;;18.00;99.90;;;;;;5075943;28;20047;-77
2021/08/28 09:36:59;;;;;;;6.72;1.80;;;18.00;99.90;;;;;;5074576;28;20017;-78
2021/08/28 09:39:47;;;;;;;8.70;2.47;;;18.10;99.90;;;;;;5074013;28;20025;-72
2021/08/28 09:42:23;;;;;;;9.95;2.53;;;18.20;99.90;;;;;;5074598;28;20074;-74
2021/08/28 09:44:51;;;;;;;3.83;2.25;;;18.20;99.90;;;;;;5074557;28;20060;-75
2021/08/28 09:47:21;;;;;;;4.30;2.35;;;18.20;99.90;;;;;;5074089;28;20021;-74
2021/08/28 09:49:49;;;;;;;7.10;2.53;;;18.30;99.90;;;;;;5074074;28;20476;-73
2021/08/28 09:52:21;;;;;;;7.85;2.50;;;18.20;99.90;;;;;;5074158;28;20406;-73
2021/08/28 09:54:46;;;;;;;9.80;2.10;;;18.30;99.90;;;;;;5073352;28;20057;-73
2021/08/28 09:57:12;;;;;;;5.28;2.47;;;18.20;99.90;;;;;;5073832;28;20032;-73
2021/08/28 09:59:39;;;;;;;7.18;2.42;;;18.10;99.90;;;;;;5071172;28;20025;-73
2021/08/28 10:02:06;;;;;;;42.65;3.60;;;18.10;99.90;;;;;;5057458;28;20024;-73
2021/08/28 10:04:48;;;;;;;4.28;2.50;;;18.10;99.90;;;;;;5076770;28;20024;-73
2021/08/28 10:07:28;;;;;;;18.88;2.67;;;18.00;99.90;;;;;;5074253;28;20476;-73
2021/08/28 10:09:57;;;;;;;;;;;17.90;99.90;;;;;;5074547;28;20052;-72
2021/08/28 10:12:23;;;;;;;2.87;1.93;;;17.90;99.40;;;;;;5074000;28;19915;-72
2021/08/28 10:14:52;;;;;;;4.78;2.30;;;17.90;99.10;;;;;;5073779;28;20025;-72
2021/08/28 10:17:19;;;;;;;16.02;2.60;;;17.90;98.60;;;;;;5074136;28;20056;-72
2021/08/28 10:19:49;;;;;;;3.95;2.20;;;17.90;98.20;;;;;;5073911;28;20028;-71
2021/08/28 10:22:21;;;;;;;3.40;2.35;;;17.80;96.90;;;;;;5073915;28;20028;-71
2021/08/28 10:24:51;;;;;;;16.45;3.10;;;17.80;96.10;;;;;;5073795;28;20021;-71
2021/08/28 10:27:17;;;;;;;44.42;3.58;;;17.70;96.90;;;;;;5073964;28;20025;-71
2021/08/28 10:29:44;;;;;;;3.63;2.80;;;17.80;96.90;;;;;;5073314;28;20394;-71
2021/08/28 10:32:10;;;;;;;2.83;2.13;;;17.80;95.80;;;;;;5073643;28;20047;-71
2021/08/28 10:34:37;;;;;;;7.82;2.25;;;17.80;96.50;;;;;;5073163;28;20467;-71
2021/08/28 10:37:03;;;;;;;3.42;1.92;;;17.90;95.50;;;;;;5073544;28;20028;-71
2021/08/28 10:39:30;;;;;;;10.05;2.28;;;17.90;95.90;;;;;;5068314;28;20053;-70
2021/08/28 10:41:56;;;;;;;2.90;1.98;;;17.90;95.70;;;;;;5053191;28;20476;-73
2021/08/28 10:44:23;;;;;;;11.43;3.13;;;17.90;95.90;;;;;;5053298;28;20112;-73
2021/08/28 10:46:49;;;;;;;8.27;2.50;;;18.00;95.90;;;;;;5052993;28;20484;-73
2021/08/28 10:49:15;;;;;;;2.88;2.05;;;17.90;94.80;;;;;;5053401;28;20041;-73
2021/08/28 10:51:42;;;;;;;3.55;2.30;;;17.90;93.30;;;;;;5052726;28;20021;-73
2021/08/28 10:54:10;;;;;;;9.45;2.40;;;17.90;93.60;;;;;;5052762;28;20092;-72
2021/08/28 10:56:42;;;;;;;15.65;3.08;;;17.90;93.40;;;;;;5052709;28;20552;-72
2021/08/28 10:59:22;;;;;;;4.82;2.22;;;17.90;94.30;;;;;;5052896;28;20074;-73
2021/08/28 11:01:52;;;;;;;10.20;2.40;;;17.90;94.20;;;;;;5052945;28;20025;-73
2021/08/28 11:04:35;;;;;;;8.38;2.30;;;17.90;93.90;;;;;;5053061;28;20029;-73
2021/08/28 11:07:19;;;;;;;5.30;2.35;;;17.90;92.80;;;;;;5051737;28;20029;-73
2021/08/28 11:10:11;;;;;;;8.13;2.03;;;17.90;91.70;;;;;;5052555;28;20500;-73
2021/08/28 11:12:45;;;;;;;10.52;2.60;;;17.90;92.00;;;;;;5052592;28;20067;-73
2021/08/28 11:15:31;;;;;;;8.70;2.22;;;17.90;92.90;;;;;;5052741;28;20060;-73
2021/08/28 11:18:33;;;;;;;4.00;2.10;;;17.90;92.50;;;;;;5051310;28;20071;-73
2021/08/28 11:21:09;;;;;;;7.95;2.72;;;17.90;92.00;;;;;;5052072;28;20041;-73
2021/08/28 11:23:40;;;;;;;20.25;2.35;;;17.90;93.10;;;;;;5052620;28;20025;-72
2021/08/28 11:26:06;;;;;;;4.40;2.10;;;17.90;91.00;;;;;;5052316;28;20029;-73
2021/08/28 11:28:41;;;;;;;7.05;2.38;;;17.90;91.70;;;;;;5052109;28;20047;-73
2021/08/28 11:31:07;;;;;;;3.53;2.20;;;17.90;91.10;;;;;;5055179;28;20059;-72
2021/08/28 11:33:35;;;;;;;4.80;1.90;;;17.90;91.20;;;;;;5054096;28;20033;-72
2021/08/28 11:36:04;;;;;;;6.80;2.17;;;17.90;90.10;;;;;;5052105;28;20040;-72
2021/08/28 11:38:46;;;;;;;5.05;2.20;;;17.80;89.40;;;;;;5052397;28;20112;-75
2021/08/28 11:41:13;;;;;;;3.30;2.17;;;17.80;88.50;;;;;;5052182;28;20033;-74
2021/08/28 11:43:44;;;;;;;3.92;2.25;;;17.80;87.00;;;;;;5052066;28;20025;-75
2021/08/28 11:46:18;;;;;;;3.33;2.20;;;17.90;87.70;;;;;;5052286;28;20079;-72
2021/08/28 11:48:47;;;;;;;3.75;2.15;;;17.80;87.70;;;;;;5052024;28;20048;-72
2021/08/28 11:51:28;;;;;;;9.55;2.20;;;17.80;87.90;;;;;;5052222;28;20025;-75
2021/08/28 11:53:56;;;;;;;9.35;2.20;;;18.00;93.60;;;;;;5052094;28;20064;-71
2021/08/28 11:56:24;;;;;;;3.40;2.15;;;18.20;91.40;;;;;;5051937;28;20021;-71
2021/08/28 11:58:56;;;;;;;10.75;2.25;;;18.10;89.90;;;;;;5051957;28;20550;-72
2021/08/28 12:01:41;;;;;;;4.95;2.10;;;18.00;90.50;;;;;;5052084;28;20032;-72
2021/08/28 12:04:16;;;;;;;3.50;1.98;;;17.90;90.00;;;;;;5051712;28;20025;-72
2021/08/28 12:06:43;;;;;;;8.88;1.90;;;17.90;88.20;;;;;;5052012;28;20025;-72
2021/08/28 12:09:10;;;;;;;5.65;1.90;;;17.90;85.20;;;;;;5051756;28;20394;-72
2021/08/28 12:11:37;;;;;;;2.85;1.90;;;17.80;86.30;;;;;;5051953;28;20025;-72
2021/08/28 12:14:07;;;;;;;9.60;2.83;;;17.80;88.70;;;;;;5052060;28;20044;-72
2021/08/28 12:16:35;;;;;;;3.35;1.92;;;17.80;88.10;;;;;;5051806;28;20070;-72
2021/08/28 12:19:17;;;;;;;8.20;2.80;;;17.90;88.60;;;;;;5054331;28;20384;-72
2021/08/28 12:21:44;;;;;;;31.90;3.05;;;17.90;90.00;;;;;;5055559;28;20021;-72
2021/08/28 12:24:18;;;;;;;8.68;2.30;;;17.80;86.90;;;;;;5055874;28;20021;-72
2021/08/28 12:26:58;;;;;;;8.00;2.20;;;17.80;86.40;;;;;;5055937;28;20086;-72
2021/08/28 12:29:25;;;;;;;;;;;17.80;87.50;;;;;;5056165;28;20124;-71
2021/08/28 12:31:59;;;;;;;2.47;1.80;;;17.80;86.40;;;;;;5055731;28;19905;-73
2021/08/28 12:34:32;;;;;;;40.40;4.47;;;17.80;87.00;;;;;;5055774;28;20044;-73
2021/08/28 12:37:04;;;;;;;6.45;2.17;;;17.80;86.40;;;;;;5055498;28;20032;-73
2021/08/28 12:39:30;;;;;;;9.10;2.08;;;17.80;86.00;;;;;;5056185;28;20029;-73
2021/08/28 12:41:57;;;;;;;2.92;1.70;;;17.80;85.70;;;;;;5055417;28;20029;-73
2021/08/28 12:44:24;;;;;;;3.35;2.03;;;17.80;84.40;;;;;;5055362;28;20029;-74
2021/08/28 12:46:52;;;;;;;6.55;2.03;;;17.80;86.00;;;;;;5055431;28;20032;-73
2021/08/28 12:49:23;;;;;;;5.25;2.42;;;17.80;85.00;;;;;;5063475;28;20058;-73
2021/08/28 12:51:51;;;;;;;10.80;2.60;;;17.80;85.10;;;;;;5054947;28;20489;-73
2021/08/28 12:54:23;;;;;;;3.90;2.40;;;17.80;86.00;;;;;;5055130;28;20396;-73
2021/08/28 12:57:02;;;;;;;18.90;2.42;;;17.90;86.80;;;;;;5055061;28;20021;-73
2021/08/28 12:59:28;;;;;;;10.88;2.35;;;17.90;88.30;;;;;;5055477;28;20477;-73
2021/08/28 13:01:57;;;;;;;5.55;2.33;;;17.90;87.40;;;;;;5054933;28;20025;-73
2021/08/28 13:04:32;;;;;;;3.20;1.95;;;17.90;87.60;;;;;;5055349;28;20104;-73
2021/08/28 13:07:14;;;;;;;8.43;2.40;;;17.90;88.70;;;;;;5054991;28;20029;-74
2021/08/28 13:10:13;;;;;;;2.75;2.00;;;17.90;89.40;;;;;;5054946;28;20033;-73
2021/08/28 13:12:54;;;;;;;4.15;2.00;;;18.00;87.50;;;;;;5053636;28;20044;-74
2021/08/28 13:15:28;;;;;;;6.03;2.33;;;17.90;88.00;;;;;;5054984;28;20431;-74
2021/08/28 13:17:58;;;;;;;23.13;2.65;;;17.90;88.10;;;;;;5055203;28;20032;-73
2021/08/28 13:20:29;;;;;;;3.05;2.00;;;18.00;90.00;;;;;;5055090;28;20024;-74
2021/08/28 13:23:02;;;;;;;10.23;2.45;;;18.00;90.10;;;;;;5054577;28;20029;-74
2021/08/28 13:25:31;;;;;;;3.92;2.30;;;18.00;90.00;;;;;;5054918;28;20083;-75
2021/08/28 13:27:58;;;;;;;2.97;2.13;;;18.00;90.20;;;;;;5054854;28;20170;-75